Stations météo

Publicité
Schmücke, Allemagne (10552): Température de l'air & dewpoint: 20.04.2018 16:00:00 - 26.04.2018 16:00:00 (CEST)Schmücke, Allemagne (10552): Température de l'air 5cm & Température de l'air -5cm: 20.04.2018 16:00:00 - 26.04.2018 16:00:00 (CEST)Schmücke, Allemagne (10552): Température de l'air -20cm & Température de l'air -100cm: 20.04.2018 16:00:00 - 26.04.2018 16:00:00 (CEST)Schmücke, Allemagne (10552): Vitesse du vent & gusts: 20.04.2018 16:00:00 - 26.04.2018 16:00:00 (CEST)Schmücke, Allemagne (10552): Direction du vent: 20.04.2018 16:00:00 - 26.04.2018 16:00:00 (CEST)Schmücke, Allemagne (10552): visibility: 20.04.2018 16:00:00 - 26.04.2018 16:00:00 (CEST)Schmücke, Allemagne (10552): Ensoleillement: 20.04.2018 16:00:00 - 26.04.2018 16:00:00 (CEST)Schmücke, Allemagne (10552): Quantités de précipitations: 20.04.2018 16:00:00 - 26.04.2018 16:00:00 (CEST)
Date & Time tt [°C] td [°C] tt 5cm [°C] tt -5cm [°C] tt -20cm [°C] tt -100cm [°C] ff [km/h] ff [knt] fx [km/h] fx [knt] dd vv [km] sd [min] rr [mm]
26.04.2018 16:00:00 3,3 1,7 3,7 10,0 8,9 8,6 21 11 46 25 W 16 28 0,5
26.04.2018 15:00:00 3,8 2,3 4,5 8,9 8,8 8,6 25 13 49 26 W 20 5 0,4
26.04.2018 14:00:00 3,4 1,9 3,4 9,1 8,7 8,6 23 13 52 28 WNW 11 3 0,0
26.04.2018 13:00:00 3,9 2,7 4,6 8,8 8,6 8,6 21 12 40 22 WSW 10 14 0,7
26.04.2018 12:00:00 3,8 2,0 4,3 7,7 8,6 8,6 21 12 49 27 WSW 14 2 0,0
26.04.2018 11:00:00 3,5 2,2 4,7 6,9 8,6 8,6 23 13 44 24 WSW 22 1 0,0
26.04.2018 10:00:00 2,6 1,7 3,1 6,5 8,7 8,6 22 12 42 23 SW 21 0 0,0
26.04.2018 09:00:00 2,0 1,5 2,5 6,3 8,9 8,6 23 12 46 25 SW 13 1 0,0
26.04.2018 08:00:00 1,8 1,4 2,5 6,0 9,1 8,6 26 14 42 23 WSW 1,6 1 0,0
26.04.2018 07:00:00 2,0 1,7 2,3 5,7 9,3 8,6 21 11 31 17 WSW 0,1 0 0,0
26.04.2018 06:00:00 2,2 1,5 1,2 6,3 9,5 8,6 22 12 42 23 WSW 6 0 0,0
26.04.2018 05:00:00 4,5 4,2 4,6 7,3 9,7 8,6 21 11 40 21 WSW 0,1 0 0,0
26.04.2018 04:00:00 4,9 4,3 4,8 7,5 9,8 8,6 21 12 32 17 W 2,8 0 0,3
26.04.2018 03:00:00 5,8 5,6 5,9 7,8 10,0 8,6 14 8 29 15 SW - 0 0,0
26.04.2018 02:00:00 5,7 5,5 5,8 7,8 10,1 8,6 10 6 16 9 WSW 0,1 0 0,0
26.04.2018 01:00:00 5,6 5,2 4,3 8,2 10,3 8,6 12 6 21 12 WSW 0,3 0 0,0
26.04.2018 00:00:00 6,3 6,1 6,4 8,5 10,4 8,6 12 7 19 10 WSW 0,1 0 0,0
25.04.2018 23:00:00 6,2 5,9 6,2 8,6 10,6 8,6 14 8 31 17 WSW 0,1 0 1,2
25.04.2018 22:00:00 6,3 5,8 6,1 8,8 10,8 8,6 15 8 24 13 WSW 6 0 0,0
25.04.2018 21:00:00 6,4 5,8 6,3 9,4 10,9 8,6 15 8 24 13 SW 7 0 0,0
25.04.2018 20:00:00 7,2 6,8 7,0 9,8 11,0 8,6 15 8 38 20 WSW 6 0 0,0
25.04.2018 19:00:00 7,5 7,1 7,8 10,1 11,0 8,6 21 11 47 25 WSW 4,2 0 1,2
25.04.2018 18:00:00 7,7 7,4 7,8 10,4 11,1 8,6 18 10 36 19 SW 0,1 0 0,2
25.04.2018 17:00:00 7,3 7,0 7,4 10,4 11,1 8,6 26 14 55 30 WSW 0,2 0 2,3
25.04.2018 16:00:00 8,6 7,6 8,4 11,1 11,1 8,6 21 12 55 30 WSW 2,4 1 0,1
25.04.2018 15:00:00 9,1 7,5 9,7 11,1 11,0 8,6 24 13 56 31 WSW 11 0 0,1
25.04.2018 14:00:00 9,4 5,8 8,9 11,1 10,9 8,6 32 17 69 37 WSW 16 0 0,0
25.04.2018 13:00:00 10,7 4,7 10,8 11,5 10,8 8,6 34 18 68 37 SW 19 9 0,0
25.04.2018 12:00:00 10,1 6,2 10,5 10,6 10,7 8,6 33 18 61 33 WSW 15 0 0,0
25.04.2018 11:00:00 9,5 7,3 9,9 10,4 10,6 8,6 31 17 56 30 SW 13 0 0,0
25.04.2018 10:00:00 9,6 7,2 10,5 10,3 10,6 8,6 29 16 55 30 SW 17 10 0,0
25.04.2018 09:00:00 9,4 6,7 10,6 9,0 10,6 8,6 35 19 54 29 SW 13 60 0,0
25.04.2018 08:00:00 7,5 5,9 7,2 8,3 10,8 8,6 33 18 47 25 SW 16 60 0,0
25.04.2018 07:00:00 6,6 5,5 6,0 7,9 11,0 8,6 29 16 46 25 SW 8 10 0,0
25.04.2018 06:00:00 7,2 5,2 6,1 8,2 11,3 8,6 30 16 53 29 SW 13 0 0,0
25.04.2018 05:00:00 7,8 5,2 6,6 8,5 11,5 8,6 26 14 46 25 SW 19 0 0,0
25.04.2018 04:00:00 7,8 4,8 7,0 8,6 11,8 8,6 22 12 35 19 SW 24 0 0,0
25.04.2018 03:00:00 7,9 5,0 6,9 9,1 12,0 8,6 18 10 29 15 SW 24 0 0,0
25.04.2018 02:00:00 8,5 5,0 7,7 9,4 12,3 8,6 16 9 29 15 SW 24 0 0,0
25.04.2018 01:00:00 9,2 3,9 7,7 9,8 12,6 8,6 18 10 30 16 SW 40 0 0,0
25.04.2018 00:00:00 9,4 3,5 8,1 10,4 12,9 8,6 19 11 30 16 SW 39 0 0,0
24.04.2018 23:00:00 9,5 3,5 7,7 11,1 13,2 8,6 18 10 30 16 SW 46 0 0,0
24.04.2018 22:00:00 9,7 4,0 8,5 11,8 13,5 8,6 19 10 40 21 WSW 51 0 0,0
24.04.2018 21:00:00 10,3 4,1 9,3 12,9 13,6 8,5 22 12 39 21 SW 44 0 0,0
24.04.2018 20:00:00 11,3 5,1 11,0 14,0 13,7 8,5 23 12 39 21 SW 36 0 0,0
24.04.2018 19:00:00 11,7 5,3 11,8 14,9 13,6 8,5 22 12 43 23 SW 33 0 0,0
24.04.2018 18:00:00 12,0 5,1 12,4 15,7 13,5 8,5 26 14 43 23 SW 30 0 0,0
24.04.2018 17:00:00 12,1 4,8 13,1 16,0 13,3 8,5 28 15 43 23 SSW 28 0 0,0
24.04.2018 16:00:00 11,7 4,4 12,7 16,8 12,8 8,5 26 14 44 24 SSW 35 3 0,0
24.04.2018 15:00:00 12,8 4,8 14,9 17,7 12,3 8,5 29 16 55 30 SW 22 24 0,0
24.04.2018 14:00:00 11,7 4,4 13,3 17,3 11,7 8,5 36 19 56 30 SW 28 45 0,0
24.04.2018 13:00:00 11,6 4,1 14,6 15,2 11,2 8,5 32 17 63 34 SW 22 58 0,0
24.04.2018 12:00:00 10,5 5,3 12,5 12,7 10,9 8,5 32 17 61 33 WSW 20 36 0,0
24.04.2018 11:00:00 9,0 5,6 10,1 11,1 10,8 8,4 39 21 69 38 SW 22 35 0,0
24.04.2018 10:00:00 8,4 5,4 9,3 9,7 10,7 8,4 40 22 72 39 SW 17 46 0,0
24.04.2018 09:00:00 7,7 5,1 8,7 8,3 10,9 8,4 44 24 69 37 SW 14 55 0,0
24.04.2018 08:00:00 6,4 4,3 6,1 7,6 11,1 8,4 37 20 56 30 SW 10 47 0,0
24.04.2018 07:00:00 5,7 3,9 5,0 7,4 11,4 8,4 33 18 45 25 WSW 7 22 0,0
24.04.2018 06:00:00 5,8 3,7 4,5 7,6 11,7 8,4 26 14 35 19 WSW 8 0 0,0
24.04.2018 05:00:00 6,3 3,6 5,0 7,9 12,1 8,4 23 13 34 19 WSW 10 0 0,0
24.04.2018 04:00:00 6,8 3,5 5,1 8,4 12,4 8,3 19 10 29 15 WSW 13 0 0,0
24.04.2018 03:00:00 7,2 4,0 5,4 8,9 12,8 8,3 16 9 23 12 WSW 14 0 0,0
24.04.2018 02:00:00 7,6 4,4 5,3 9,4 13,2 8,3 16 8 21 11 WSW 13 0 0,0
24.04.2018 01:00:00 7,4 4,1 4,9 9,9 13,6 8,3 11 6 18 10 W 14 0 0,0
24.04.2018 00:00:00 7,7 4,1 4,4 10,6 14,0 8,3 8 5 15 8 WNW 16 0 0,0
23.04.2018 23:00:00 8,5 5,0 5,3 11,5 14,3 8,3 7 4 20 11 WNW 24 0 0,0
23.04.2018 22:00:00 10,0 6,1 8,0 12,6 14,6 8,3 13 7 27 14 W 25 0 0,0
23.04.2018 21:00:00 11,3 7,6 10,0 14,0 14,8 8,2 16 8 25 13 W 20 0 0,0
23.04.2018 20:00:00 12,3 9,2 11,8 15,1 14,8 8,2 10 5 24 13 WSW 20 1 0,0
23.04.2018 19:00:00 13,7 9,6 13,6 16,1 14,8 8,2 14 8 30 16 SW 20 16 0,0
23.04.2018 18:00:00 13,5 9,3 13,7 16,1 14,8 8,2 10 5 26 14 WSW 22 3 0,0
23.04.2018 17:00:00 12,9 9,9 13,0 16,2 14,7 8,2 15 8 34 19 W 18 0 0,4
23.04.2018 16:00:00 15,1 8,3 14,8 17,7 14,5 8,1 17 9 37 20 WSW 24 16 0,0
23.04.2018 15:00:00 14,5 10,0 15,2 17,3 14,2 8,1 17 9 47 26 SW 18 12 0,0
23.04.2018 14:00:00 13,8 9,8 15,0 16,7 14,0 8,1 24 13 44 24 SW 18 16 0,0
23.04.2018 13:00:00 12,6 10,3 13,4 14,9 14,0 8,1 19 10 29 16 SW 13 0 0,0
23.04.2018 12:00:00 12,9 10,6 13,6 14,7 13,9 8,1 16 9 26 14 SW 15 0 0,0
23.04.2018 11:00:00 12,2 10,0 12,4 14,0 13,9 8,0 12 7 22 12 SW 15 0 0,1
23.04.2018 10:00:00 12,6 9,7 12,7 13,8 13,9 8,0 11 6 20 11 SW 20 0 0,0
23.04.2018 09:00:00 12,8 9,7 12,8 13,4 14,0 8,0 13 7 20 11 SW 18 18 0,0
23.04.2018 08:00:00 11,6 9,7 10,9 12,5 14,3 8,0 9 5 18 10 WSW 16 1 0,2
23.04.2018 07:00:00 11,8 8,5 9,6 12,2 14,5 8,0 9 5 16 9 SW 19 0 0,0
23.04.2018 06:00:00 12,3 8,4 9,8 12,6 14,8 8,0 10 5 19 10 SW 25 0 0,0
23.04.2018 05:00:00 12,8 8,3 11,6 12,8 15,1 7,9 15 8 23 13 WSW 27 0 0,0
23.04.2018 04:00:00 13,1 7,8 11,1 13,2 15,5 7,9 16 9 23 12 WSW 27 0 0,0
23.04.2018 03:00:00 13,3 7,7 10,7 13,6 15,8 7,9 16 8 26 14 WSW 34 0 0,0
23.04.2018 02:00:00 13,5 7,6 11,1 14,4 16,1 7,9 14 8 21 11 WSW 33 0 0,0
23.04.2018 01:00:00 14,7 7,9 13,0 15,1 16,5 7,9 15 8 22 12 WSW 31 0 0,0
23.04.2018 00:00:00 15,8 7,8 14,6 15,7 16,8 7,8 16 9 34 18 WSW 32 0 0,0
22.04.2018 23:00:00 16,4 7,7 15,1 16,2 17,1 7,8 18 10 33 18 SW 29 0 0,0
22.04.2018 22:00:00 16,5 8,0 15,3 17,0 17,5 7,8 17 9 29 16 SW 26 0 0,0
22.04.2018 21:00:00 16,6 8,2 15,3 18,2 17,7 7,8 13 7 23 12 SW 27 0 0,0
22.04.2018 20:00:00 17,7 8,2 16,4 19,8 17,8 7,8 16 8 30 16 SSW 25 0 0,0
22.04.2018 19:00:00 18,5 7,9 17,8 21,4 17,7 7,7 16 9 34 18 SW 27 1 0,0
22.04.2018 18:00:00 19,8 7,1 20,0 23,4 17,3 7,7 17 9 42 23 SW 31 60 0,0
22.04.2018 17:00:00 20,6 7,9 22,5 23,8 16,8 7,7 21 11 40 21 SW 20 58 0,0
22.04.2018 16:00:00 19,5 8,5 20,7 23,3 16,3 7,7 23 12 41 22 SW 26 31 0,0
22.04.2018 15:00:00 19,7 9,1 22,9 24,0 15,5 7,7 27 14 40 22 SW 24 51 0,0
22.04.2018 14:00:00 20,0 8,8 23,5 22,7 14,7 7,6 18 10 34 18 SW 26 46 0,0
22.04.2018 13:00:00 19,4 9,7 22,6 21,4 14,0 7,6 14 8 26 14 SSW 19 56 0,0
22.04.2018 12:00:00 18,4 9,1 21,5 19,1 13,4 7,6 11 6 26 14 SSW 18 60 0,0
22.04.2018 11:00:00 17,2 9,5 19,8 16,1 13,0 7,6 16 9 26 14 SSW 13 60 0,0
22.04.2018 10:00:00 16,0 9,7 17,8 13,5 12,9 7,6 13 7 22 12 SW 11 60 0,0
22.04.2018 09:00:00 14,4 9,1 15,2 11,8 13,0 7,5 12 7 19 10 SW 11 59 0,0
22.04.2018 08:00:00 13,2 8,5 11,5 11,0 13,2 7,5 10 5 17 9 SSW 10 60 0,0
22.04.2018 07:00:00 11,9 7,4 9,9 10,4 13,6 7,5 9 5 20 11 S 9 7 0,0
22.04.2018 06:00:00 11,0 7,5 7,1 10,6 13,9 7,5 11 6 16 9 SSE 8 0 0,0
22.04.2018 05:00:00 10,7 7,5 7,0 11,0 14,3 7,4 9 5 12 7 SSE 7 0 0,0
22.04.2018 04:00:00 10,1 8,2 7,5 11,6 14,7 7,4 7 4 13 7 ESE 5 0 0,0
22.04.2018 03:00:00 10,4 8,9 8,3 12,1 15,1 7,4 10 5 16 9 E 3,2 0 0,0
22.04.2018 02:00:00 10,9 9,4 8,9 12,7 15,5 7,4 10 6 19 10 E 2,9 0 0,0
22.04.2018 01:00:00 10,9 9,5 9,0 13,3 15,9 7,4 13 7 22 12 ENE 2,9 0 0,0
22.04.2018 00:00:00 11,1 9,4 9,4 14,1 16,4 7,3 15 8 20 11 ENE 3,4 0 0,0
21.04.2018 23:00:00 11,6 9,4 9,8 15,0 16,8 7,3 12 7 22 12 NE 4,4 0 0,0
21.04.2018 22:00:00 12,2 9,4 10,4 16,1 17,2 7,3 14 8 22 12 NE 6 0 0,0
21.04.2018 21:00:00 13,3 8,2 11,0 17,6 17,5 7,3 10 6 18 10 NNE 13 0 0,0
21.04.2018 20:00:00 15,0 8,9 13,7 19,5 17,5 7,3 8 5 18 10 NNE 12 52 0,0
21.04.2018 19:00:00 16,7 8,8 17,3 21,6 17,4 7,2 9 5 19 11 N 12 59 0,0
21.04.2018 18:00:00 17,2 9,0 19,1 22,9 17,1 7,2 10 5 21 12 NNE 10 60 0,0
21.04.2018 17:00:00 17,9 10,0 20,5 23,3 16,7 7,2 11 6 22 12 NNE 9 41 0,0
21.04.2018 16:00:00 18,5 9,8 22,0 23,5 16,2 7,2 10 6 20 11 N 11 49 0,0
21.04.2018 15:00:00 17,4 9,4 18,3 22,4 15,6 7,1 7 4 24 13 NNE 11 29 0,0
21.04.2018 14:00:00 18,3 9,2 20,9 22,1 14,9 7,1 12 6 25 13 NE 11 39 0,0
21.04.2018 13:00:00 18,5 8,6 22,4 21,7 14,2 7,1 10 5 21 11 NNE 14 60 0,0
21.04.2018 12:00:00 17,8 9,3 21,8 19,1 13,6 7,1 9 5 18 10 ENE 12 60 0,0
21.04.2018 11:00:00 17,0 8,4 19,5 16,3 13,3 7,0 9 5 22 12 NE 14 60 0,0
21.04.2018 10:00:00 16,5 8,5 18,4 13,9 13,3 7,0 12 6 21 11 NE 13 60 0,0
21.04.2018 09:00:00 15,8 7,9 16,6 12,4 13,4 7,0 10 5 21 11 NNE 16 60 0,0
21.04.2018 08:00:00 15,4 7,6 13,6 11,9 13,7 7,0 10 5 20 11 NNE 14 60 0,0
21.04.2018 07:00:00 14,4 6,7 11,9 11,6 14,0 7,0 12 7 18 10 N 18 14 0,0
21.04.2018 06:00:00 14,9 6,4 13,0 11,9 14,3 6,9 12 6 22 12 N 16 0 0,0
21.04.2018 05:00:00 15,2 6,7 13,0 12,3 14,6 6,9 11 6 17 9 N 26 0 0,0
21.04.2018 04:00:00 15,7 6,7 13,3 12,7 15,0 6,9 11 6 17 9 N 31 0 0,0
21.04.2018 03:00:00 15,8 6,5 14,1 13,2 15,4 6,9 11 6 19 11 NNW 36 0 0,0
21.04.2018 02:00:00 14,8 6,8 11,8 13,6 15,8 6,9 10 5 15 8 NW 35 0 0,0
21.04.2018 01:00:00 15,3 4,9 12,0 14,3 16,2 6,8 11 6 22 12 W 39 0 0,0
21.04.2018 00:00:00 16,0 4,3 13,2 15,1 16,7 6,8 16 9 25 13 WSW 38 0 0,0
20.04.2018 23:00:00 16,1 4,4 13,5 16,1 17,1 6,8 16 9 25 13 WSW 49 0 0,0
20.04.2018 22:00:00 16,5 5,5 13,6 17,3 17,5 6,8 12 6 19 10 WSW 47 0 0,0
20.04.2018 21:00:00 16,9 6,1 13,8 19,0 17,7 6,8 12 6 18 10 WSW 49 13 0,0
20.04.2018 20:00:00 18,7 6,5 16,5 21,2 17,7 6,7 11 6 20 11 WSW 44 60 0,0
20.04.2018 19:00:00 21,1 5,4 21,4 23,6 17,4 6,7 12 7 29 15 SW 45 60 0,0
20.04.2018 18:00:00 22,1 4,7 23,0 25,1 16,9 6,7 15 8 33 18 SSW 49 60 0,0
20.04.2018 17:00:00 22,7 6,7 25,0 25,9 16,2 6,7 13 7 31 17 SW 43 60 0,0
20.04.2018 16:00:00 22,8 5,1 25,0 25,8 15,4 6,7 15 8 30 16 SW 41 60 0,0

tt = Température de l'air
td = dewpoint
tt 5cm = Température de l'air 5cm
tt -5cm = Température de l'air -5cm
tt -20cm = Température de l'air -20cm
tt -100cm = Température de l'air -100cm
ff = Vitesse du vent
fx = gusts
dd = Direction du vent
vv = visibility
sd = Ensoleillement
rr = Quantités de précipitations

stations d'obs. à proximité